createdAt,value
2023-05-21T00:01:55.714Z,17.40
2023-05-21T00:04:57.164Z,17.44
2023-05-21T00:07:58.671Z,17.42
2023-05-21T00:11:00.327Z,17.43
2023-05-21T00:14:01.814Z,17.42
2023-05-21T00:17:03.415Z,17.16
2023-05-21T00:20:07.228Z,17.08
2023-05-21T00:23:10.125Z,17.06
2023-05-21T00:26:11.557Z,17.05
2023-05-21T00:29:13.098Z,16.98
2023-05-21T00:32:14.834Z,16.94
2023-05-21T00:35:17.196Z,17.06
2023-05-21T00:38:18.954Z,17.18
2023-05-21T00:41:22.893Z,17.25
2023-05-21T00:44:25.391Z,17.25
2023-05-21T00:47:29.622Z,17.28
2023-05-21T00:50:31.937Z,17.26
2023-05-21T00:53:36.368Z,17.22
2023-05-21T00:56:38.419Z,17.28
2023-05-21T00:59:40.180Z,17.25
2023-05-21T01:02:42.053Z,17.29
2023-05-21T01:05:45.039Z,17.32
2023-05-21T01:08:46.895Z,17.23
2023-05-21T01:11:50.678Z,17.27
2023-05-21T01:14:52.974Z,17.24
2023-05-21T01:17:55.703Z,17.24
2023-05-21T01:20:57.253Z,17.14
2023-05-21T01:23:58.851Z,17.12
2023-05-21T01:27:01.524Z,17.19
2023-05-21T01:30:03.145Z,17.17
2023-05-21T01:33:15.448Z,17.17
2023-05-21T01:36:24.363Z,17.17
2023-05-21T01:39:38.518Z,17.15
2023-05-21T01:42:44.224Z,17.12
2023-05-21T01:45:47.374Z,17.11
2023-05-21T01:48:51.259Z,17.08
2023-05-21T01:51:53.008Z,17.09
2023-05-21T01:54:56.812Z,17.14
2023-05-21T01:58:01.915Z,17.12
2023-05-21T02:01:05.013Z,17.13
2023-05-21T02:04:06.632Z,17.14
2023-05-21T02:07:08.188Z,17.10
2023-05-21T02:10:10.528Z,17.04
2023-05-21T02:13:12.016Z,17.02
2023-05-21T02:16:15.712Z,16.93
2023-05-21T02:19:17.411Z,16.91
2023-05-21T02:22:18.903Z,16.95
2023-05-21T02:25:20.834Z,16.92
2023-05-21T02:28:22.332Z,16.80
2023-05-21T02:31:23.988Z,16.79
2023-05-21T02:34:25.837Z,16.84
2023-05-21T02:37:27.703Z,16.87
2023-05-21T02:40:29.136Z,16.83
2023-05-21T02:43:30.555Z,16.78
2023-05-21T02:46:32.160Z,16.74
2023-05-21T02:49:33.859Z,16.67
2023-05-21T02:52:35.498Z,16.66
2023-05-21T02:55:37.366Z,16.58
2023-05-21T02:58:39.054Z,16.60
2023-05-21T03:01:41.255Z,16.63
2023-05-21T03:04:46.374Z,16.58
2023-05-21T03:07:48.119Z,16.48
2023-05-21T03:10:49.831Z,16.56
2023-05-21T03:13:51.791Z,16.65
2023-05-21T03:16:53.263Z,16.61
2023-05-21T03:19:54.822Z,16.56
2023-05-21T03:22:56.355Z,16.60
2023-05-21T03:25:57.833Z,16.62
2023-05-21T03:28:59.431Z,16.62
2023-05-21T03:32:02.083Z,16.59
2023-05-21T03:35:05.189Z,16.55
2023-05-21T03:38:06.787Z,16.53
2023-05-21T03:41:10.265Z,16.57
2023-05-21T03:44:12.565Z,16.57
2023-05-21T03:47:23.792Z,16.48
2023-05-21T03:50:26.436Z,16.51
2023-05-21T03:53:27.862Z,16.41
2023-05-21T03:56:29.376Z,16.28
2023-05-21T03:59:30.872Z,16.26
2023-05-21T04:02:33.408Z,16.33
2023-05-21T04:05:35.315Z,16.31
2023-05-21T04:08:38.005Z,16.25
2023-05-21T04:11:39.517Z,16.27
2023-05-21T04:14:41.269Z,16.21
2023-05-21T04:17:42.758Z,16.19
2023-05-21T04:20:44.238Z,16.13
2023-05-21T04:23:47.123Z,16.24
2023-05-21T04:27:01.378Z,16.21
2023-05-21T04:30:05.472Z,16.25
2023-05-21T04:33:09.845Z,16.16
2023-05-21T04:36:12.185Z,16.08
2023-05-21T04:39:14.384Z,16.01
2023-05-21T04:42:15.872Z,15.96
2023-05-21T04:45:21.117Z,16.02
2023-05-21T04:48:24.775Z,16.07
2023-05-21T04:51:26.636Z,16.02
2023-05-21T04:54:28.950Z,16.04
2023-05-21T04:57:30.430Z,16.12
2023-05-21T05:00:31.995Z,16.14
2023-05-21T05:03:33.971Z,16.23
2023-05-21T05:06:35.490Z,16.28
2023-05-21T05:09:36.931Z,16.29
2023-05-21T05:12:38.488Z,16.26
2023-05-21T05:15:40.280Z,16.27
2023-05-21T05:18:41.845Z,16.28
2023-05-21T05:21:43.489Z,16.37
2023-05-21T05:24:46.031Z,16.31
2023-05-21T05:27:47.514Z,16.29
2023-05-21T05:30:49.121Z,16.30
2023-05-21T05:33:56.518Z,16.23
2023-05-21T05:36:59.200Z,16.17
2023-05-21T05:40:00.801Z,16.08
2023-05-21T05:43:02.656Z,16.22
2023-05-21T05:46:04.245Z,16.19
2023-05-21T05:49:05.871Z,16.28
2023-05-21T05:52:07.390Z,16.30
2023-05-21T05:55:09.772Z,16.22
2023-05-21T05:58:11.952Z,16.22
2023-05-21T06:01:32.208Z,16.34
2023-05-21T06:04:33.710Z,16.54
2023-05-21T06:07:38.561Z,16.54
2023-05-21T06:10:39.997Z,16.37
2023-05-21T06:13:41.456Z,16.46
2023-05-21T06:16:44.182Z,16.54
2023-05-21T06:19:46.005Z,16.66
2023-05-21T06:22:47.957Z,16.68
2023-05-21T06:25:49.490Z,16.63
2023-05-21T06:28:51.875Z,16.73
2023-05-21T06:31:53.449Z,16.79
2023-05-21T06:34:55.464Z,16.96
2023-05-21T06:37:57.365Z,17.11
2023-05-21T06:40:59.577Z,17.24
2023-05-21T06:44:16.522Z,17.48
2023-05-21T06:47:36.594Z,17.63
2023-05-21T06:50:38.136Z,17.79
2023-05-21T06:53:41.887Z,17.87
2023-05-21T06:56:43.475Z,17.98
2023-05-21T06:59:44.964Z,18.10
2023-05-21T07:02:46.529Z,18.34
2023-05-21T07:05:49.058Z,18.81
2023-05-21T07:08:50.587Z,18.67
2023-05-21T07:11:53.216Z,18.59
2023-05-21T07:14:54.712Z,18.54
2023-05-21T07:17:56.560Z,18.64
2023-05-21T07:20:59.102Z,18.83
2023-05-21T07:24:01.494Z,18.81
2023-05-21T07:27:08.762Z,18.79
2023-05-21T07:30:16.257Z,18.95
2023-05-21T07:33:20.486Z,19.17
2023-05-21T07:36:22.916Z,19.32
2023-05-21T07:39:24.501Z,19.28
2023-05-21T07:42:27.079Z,19.38
2023-05-21T07:45:30.877Z,19.46
2023-05-21T07:48:34.710Z,19.61
2023-05-21T07:51:37.878Z,19.77
2023-05-21T07:54:39.596Z,19.86
2023-05-21T07:57:42.749Z,19.84
2023-05-21T08:00:48.609Z,19.91
2023-05-21T08:03:50.302Z,20.02
2023-05-21T08:06:51.882Z,20.12
2023-05-21T08:09:54.408Z,20.19
2023-05-21T08:12:56.273Z,20.31
2023-05-21T08:15:58.160Z,20.58
2023-05-21T08:19:01.171Z,20.61
2023-05-21T08:22:03.424Z,20.55
2023-05-21T08:25:08.483Z,20.65
2023-05-21T08:28:10.038Z,20.74
2023-05-21T08:31:12.355Z,20.94
2023-05-21T08:34:14.067Z,21.26
2023-05-21T08:37:25.125Z,21.44
2023-05-21T08:40:35.776Z,21.84
2023-05-21T08:43:38.532Z,21.95
2023-05-21T08:46:42.666Z,22.02
2023-05-21T08:49:45.480Z,22.17
2023-05-21T08:52:47.126Z,22.13
2023-05-21T08:55:52.566Z,22.09
2023-05-21T08:58:56.217Z,22.10
2023-05-21T09:02:02.026Z,22.13
2023-05-21T09:05:09.920Z,22.11
2023-05-21T09:08:35.100Z,22.08
2023-05-21T09:11:42.152Z,22.11
2023-05-21T09:14:44.142Z,22.11
2023-05-21T09:17:50.276Z,22.27
2023-05-21T09:21:27.598Z,22.76
2023-05-21T09:24:36.076Z,22.75
2023-05-21T09:27:39.413Z,22.73
2023-05-21T09:30:48.549Z,22.78
2023-05-21T09:33:50.947Z,22.99
2023-05-21T09:36:56.818Z,23.25
2023-05-21T09:39:58.506Z,23.21
2023-05-21T09:43:00.050Z,23.31
2023-05-21T09:46:02.256Z,23.26
2023-05-21T09:49:07.668Z,23.34
2023-05-21T09:52:09.133Z,23.24
2023-05-21T09:55:14.641Z,23.24
2023-05-21T09:58:16.310Z,23.21
2023-05-21T10:01:19.889Z,23.29
2023-05-21T10:04:23.352Z,23.44
2023-05-21T10:07:26.862Z,23.39
2023-05-21T10:10:29.793Z,23.66
2023-05-21T10:13:34.108Z,23.64
2023-05-21T10:16:36.705Z,23.88
2023-05-21T10:19:39.817Z,24.14
2023-05-21T10:22:41.992Z,24.36
2023-05-21T10:25:44.209Z,24.33
2023-05-21T10:28:46.614Z,24.34
2023-05-21T10:31:52.357Z,24.20
2023-05-21T10:34:54.688Z,24.18
2023-05-21T10:37:57.453Z,24.17
2023-05-21T10:41:00.877Z,24.27
2023-05-21T10:44:26.430Z,24.55
2023-05-21T10:47:42.832Z,24.34
2023-05-21T10:51:06.484Z,24.47
2023-05-21T10:54:37.543Z,24.63
2023-05-21T10:57:59.629Z,25.00
2023-05-21T11:01:02.193Z,25.31
2023-05-21T11:04:05.942Z,25.18
2023-05-21T11:07:07.391Z,25.05
2023-05-21T11:10:32.685Z,25.08
2023-05-21T11:13:55.058Z,25.25
2023-05-21T11:16:57.073Z,25.14
2023-05-21T11:20:05.080Z,25.10
2023-05-21T11:23:06.509Z,25.27
2023-05-21T11:26:08.063Z,25.49
2023-05-21T11:29:10.697Z,25.58
2023-05-21T11:32:15.002Z,25.78
2023-05-21T11:35:16.488Z,25.90
2023-05-21T11:38:18.528Z,26.11
2023-05-21T11:41:20.167Z,25.81
2023-05-21T11:44:41.128Z,25.91
2023-05-21T11:47:44.269Z,25.99
2023-05-21T11:50:46.242Z,26.15
2023-05-21T11:53:48.820Z,26.35
2023-05-21T11:56:50.660Z,26.41
2023-05-21T11:59:52.136Z,26.43
2023-05-21T12:02:55.451Z,26.63
2023-05-21T12:06:05.460Z,26.69
2023-05-21T12:09:07.020Z,26.72
2023-05-21T12:12:09.725Z,27.00
2023-05-21T12:15:13.041Z,27.03
2023-05-21T12:18:16.532Z,26.96
2023-05-21T12:21:18.253Z,27.04
2023-05-21T12:24:19.770Z,27.24
2023-05-21T12:27:22.083Z,27.37
2023-05-21T12:30:25.009Z,27.22
2023-05-21T12:33:34.153Z,27.14
2023-05-21T12:36:38.047Z,26.99
2023-05-21T12:39:41.152Z,26.96
2023-05-21T12:42:44.373Z,27.09
2023-05-21T12:45:46.424Z,27.15
2023-05-21T12:48:49.496Z,27.08
2023-05-21T12:51:50.919Z,27.14
2023-05-21T12:54:54.663Z,27.26
2023-05-21T12:58:08.829Z,27.21
2023-05-21T13:01:12.043Z,27.23
2023-05-21T13:04:13.684Z,27.13
2023-05-21T13:07:16.570Z,27.36
2023-05-21T13:10:18.150Z,27.54
2023-05-21T13:13:20.062Z,27.70
2023-05-21T13:16:23.644Z,27.82
2023-05-21T13:19:25.618Z,27.93
2023-05-21T13:22:27.270Z,27.89
2023-05-21T13:25:29.256Z,27.71
2023-05-21T13:28:32.562Z,27.70
2023-05-21T13:31:33.972Z,27.83
2023-05-21T13:34:35.705Z,27.88
2023-05-21T13:37:40.199Z,28.00
2023-05-21T13:40:41.775Z,27.90
2023-05-21T13:43:43.302Z,27.96
2023-05-21T13:46:44.855Z,27.89
2023-05-21T13:49:46.742Z,27.70
2023-05-21T13:52:48.157Z,27.79
2023-05-21T13:55:49.751Z,27.66
2023-05-21T13:58:51.519Z,27.51
2023-05-21T14:01:53.270Z,27.51
2023-05-21T14:04:54.699Z,27.21
2023-05-21T14:07:56.253Z,27.40
2023-05-21T14:10:57.719Z,27.42
2023-05-21T14:13:59.195Z,27.47
2023-05-21T14:17:00.786Z,27.62
2023-05-21T14:20:02.782Z,27.73
2023-05-21T14:23:04.976Z,27.56
2023-05-21T14:26:06.439Z,27.69
2023-05-21T14:29:09.261Z,27.73
2023-05-21T14:32:10.766Z,27.75
2023-05-21T14:35:12.296Z,27.82
2023-05-21T14:38:13.824Z,27.99
2023-05-21T14:41:15.628Z,27.94
2023-05-21T14:44:17.648Z,27.95
2023-05-21T14:47:19.086Z,27.95
2023-05-21T14:50:20.870Z,27.94
2023-05-21T14:53:22.299Z,28.02
2023-05-21T14:56:28.135Z,27.97
2023-05-21T14:59:29.669Z,28.00
2023-05-21T15:02:31.471Z,27.87
2023-05-21T15:05:34.400Z,27.83
2023-05-21T15:08:36.290Z,27.85
2023-05-21T15:11:39.712Z,28.16
2023-05-21T15:14:41.564Z,28.20
2023-05-21T15:17:43.739Z,28.25
2023-05-21T15:20:45.262Z,28.20
2023-05-21T15:23:46.795Z,28.42
2023-05-21T15:26:49.329Z,28.52
2023-05-21T15:29:51.389Z,28.44
2023-05-21T15:32:53.733Z,28.58
2023-05-21T15:35:55.909Z,28.74
2023-05-21T15:38:57.454Z,28.98
2023-05-21T15:41:58.931Z,28.85
2023-05-21T15:45:00.883Z,28.93
2023-05-21T15:48:02.448Z,28.86
2023-05-21T15:51:04.724Z,28.92
2023-05-21T15:54:06.234Z,28.91
2023-05-21T15:57:07.692Z,28.79
2023-05-21T16:00:09.947Z,28.77
2023-05-21T16:03:12.532Z,28.78
2023-05-21T16:06:14.130Z,28.77
2023-05-21T16:09:15.565Z,28.84
2023-05-21T16:12:17.476Z,28.90
2023-05-21T16:15:18.943Z,28.91
2023-05-21T16:18:20.488Z,28.72
2023-05-21T16:21:21.956Z,28.57
2023-05-21T16:24:23.384Z,28.55
2023-05-21T16:27:25.169Z,28.50
2023-05-21T16:30:28.106Z,28.38
2023-05-21T16:33:29.566Z,28.45
2023-05-21T16:36:31.335Z,28.48
2023-05-21T16:39:32.762Z,28.58
2023-05-21T16:42:34.646Z,28.54
2023-05-21T16:45:44.312Z,28.46
2023-05-21T16:48:45.787Z,28.36
2023-05-21T16:51:47.346Z,28.39
2023-05-21T16:54:48.891Z,28.40
2023-05-21T16:57:50.515Z,28.29
2023-05-21T17:00:52.731Z,28.27
2023-05-21T17:03:55.955Z,28.29
2023-05-21T17:06:57.642Z,28.09
2023-05-21T17:09:59.150Z,27.97
2023-05-21T17:13:09.808Z,27.87
2023-05-21T17:16:19.624Z,27.88
2023-05-21T17:19:21.169Z,27.82
2023-05-21T17:22:22.687Z,27.75
2023-05-21T17:25:25.108Z,27.59
2023-05-21T17:28:26.602Z,27.55
2023-05-21T17:31:29.030Z,27.51
2023-05-21T17:34:30.618Z,27.41
2023-05-21T17:37:32.197Z,27.39
2023-05-21T17:40:33.703Z,27.29
2023-05-21T17:43:35.123Z,27.19
2023-05-21T17:46:36.761Z,27.19
2023-05-21T17:49:38.444Z,27.11
2023-05-21T17:52:40.911Z,26.98
2023-05-21T17:55:42.717Z,26.88
2023-05-21T17:58:44.445Z,26.84
2023-05-21T18:01:46.137Z,26.88
2023-05-21T18:04:47.570Z,26.91
2023-05-21T18:07:49.209Z,26.83
2023-05-21T18:10:50.717Z,26.74
2023-05-21T18:13:53.586Z,26.69
2023-05-21T18:16:55.215Z,26.62
2023-05-21T18:19:56.694Z,26.53
2023-05-21T18:22:58.129Z,26.45
2023-05-21T18:25:59.855Z,26.38
2023-05-21T18:29:01.345Z,26.35
2023-05-21T18:32:03.120Z,26.30
2023-05-21T18:35:06.536Z,26.22
2023-05-21T18:38:10.970Z,26.15
2023-05-21T18:41:12.505Z,26.07
2023-05-21T18:44:13.987Z,26.02
2023-05-21T18:47:15.526Z,25.93
2023-05-21T18:50:19.418Z,25.78
2023-05-21T18:53:20.913Z,25.60
2023-05-21T18:56:22.462Z,25.45
2023-05-21T18:59:24.340Z,25.27
2023-05-21T19:02:26.978Z,25.01
2023-05-21T19:05:29.307Z,24.80
2023-05-21T19:08:30.764Z,24.70
2023-05-21T19:11:34.311Z,24.60
2023-05-21T19:14:35.995Z,24.42
2023-05-21T19:17:39.585Z,24.29
2023-05-21T19:20:41.074Z,24.12
2023-05-21T19:23:52.700Z,24.06
2023-05-21T19:26:55.256Z,23.96
2023-05-21T19:29:56.907Z,23.79
2023-05-21T19:32:59.862Z,23.71
2023-05-21T19:36:01.317Z,23.73
2023-05-21T19:39:04.114Z,23.72
2023-05-21T19:42:06.997Z,23.64
2023-05-21T19:45:09.652Z,23.56
2023-05-21T19:48:12.228Z,23.44
2023-05-21T19:51:13.859Z,23.35
2023-05-21T19:54:15.391Z,23.22
2023-05-21T19:57:18.038Z,23.19
2023-05-21T20:00:19.894Z,23.15
2023-05-21T20:03:21.843Z,23.08
2023-05-21T20:06:23.854Z,23.00
2023-05-21T20:09:25.452Z,22.97
2023-05-21T20:12:28.128Z,22.89
2023-05-21T20:15:29.558Z,22.81
2023-05-21T20:18:30.976Z,22.76
2023-05-21T20:21:32.949Z,22.71
2023-05-21T20:24:34.442Z,22.67
2023-05-21T20:27:38.463Z,22.50
2023-05-21T20:30:57.912Z,22.37
2023-05-21T20:34:00.642Z,22.25
2023-05-21T20:37:02.288Z,22.13
2023-05-21T20:40:05.557Z,21.98
2023-05-21T20:43:08.080Z,21.78
2023-05-21T20:46:09.528Z,21.55
2023-05-21T20:49:11.803Z,21.32
2023-05-21T20:52:14.260Z,21.28
2023-05-21T20:55:15.772Z,21.30
2023-05-21T20:58:17.203Z,21.34
2023-05-21T21:01:18.834Z,21.24
2023-05-21T21:04:20.622Z,21.26
2023-05-21T21:07:22.272Z,21.16
2023-05-21T21:10:23.771Z,21.20
2023-05-21T21:13:25.246Z,21.29
2023-05-21T21:16:26.781Z,21.29
2023-05-21T21:19:28.693Z,21.30
2023-05-21T21:22:30.554Z,21.26
2023-05-21T21:25:31.972Z,21.17
2023-05-21T21:28:33.407Z,21.19
2023-05-21T21:31:34.988Z,21.17
2023-05-21T21:34:36.457Z,21.17
2023-05-21T21:37:37.912Z,21.18
2023-05-21T21:40:39.578Z,21.15
2023-05-21T21:43:41.226Z,21.14
2023-05-21T21:46:42.649Z,20.94
2023-05-21T21:49:44.140Z,20.86
2023-05-21T21:52:45.848Z,20.92
2023-05-21T21:55:47.388Z,20.77
2023-05-21T21:58:48.900Z,20.58
2023-05-21T22:01:50.454Z,20.47
2023-05-21T22:04:51.939Z,20.55
2023-05-21T22:07:53.405Z,20.45
2023-05-21T22:10:55.972Z,20.40
2023-05-21T22:13:57.464Z,20.39
2023-05-21T22:16:59.175Z,20.22
2023-05-21T22:20:01.102Z,20.28
2023-05-21T22:23:02.638Z,20.12
2023-05-21T22:26:04.257Z,19.98
2023-05-21T22:29:05.695Z,19.96
2023-05-21T22:32:07.153Z,19.97
2023-05-21T22:35:09.576Z,19.98
2023-05-21T22:38:11.047Z,20.00
2023-05-21T22:41:12.483Z,20.00
2023-05-21T22:44:13.897Z,19.94
2023-05-21T22:47:16.124Z,19.89
2023-05-21T22:50:17.992Z,19.75
2023-05-21T22:53:19.432Z,19.68
2023-05-21T22:56:22.121Z,19.56
2023-05-21T22:59:23.575Z,19.49
2023-05-21T23:02:25.140Z,19.56
2023-05-21T23:05:26.661Z,19.54
2023-05-21T23:08:28.197Z,19.57
2023-05-21T23:11:29.678Z,19.50
2023-05-21T23:14:31.100Z,19.42
2023-05-21T23:17:32.740Z,19.19
2023-05-21T23:20:34.379Z,19.17
2023-05-21T23:23:35.810Z,19.08
2023-05-21T23:26:37.229Z,19.10
2023-05-21T23:29:38.665Z,19.14
2023-05-21T23:32:40.294Z,19.12
2023-05-21T23:35:41.785Z,19.13
2023-05-21T23:38:43.619Z,19.19
2023-05-21T23:41:45.162Z,19.19
2023-05-21T23:44:46.589Z,19.23
2023-05-21T23:47:48.216Z,19.20
2023-05-21T23:50:49.962Z,19.19
2023-05-21T23:53:51.394Z,19.11
2023-05-21T23:56:53.032Z,19.14
2023-05-21T23:59:54.451Z,19.21
